• Join FlightAware (Why Join?)
  • Login
  • US Flag 
07:45PM EDT


 

Airport Tracker/Info


-or-


 

Live Flight TrackerFlight Track Log ✈ DAL2033 ✈ 20-May-2013 ✈ KATL - KALB

Flight Track Log - Related Links

Times and Time Zones

All times are in EDT time to prevent confusion due to time zone crossing. See the DAL2033 flight status page for this flight to view local times or setup timezone preferences in your user account.

Time Position Orientation Groundspeed Altitude Reporting Facility
EDT Latitude Longitude Course Direction KTS MPH feet Rate Location/Type
03:20PM 33.6500 -84.3833 North 179 206 2,000  Level Atlanta TRACON
03:21PM 33.6500 -84.3167 90° East 247 284 3,500 2,100 Climbing Atlanta TRACON
03:22PM 33.6833 -84.2167 68° East 279 321 6,200 2,580 Climbing Atlanta TRACON
03:23PM 33.9319 -84.2652 320° Northwest  Level FlightAware Approximate
03:23PM 33.7500 -84.1833 23° Northeast 293 337 8,700  Level Atlanta TRACON
03:24PM 34.0545 -84.2667 North  Level FlightAware Approximate
03:24PM 33.8167 -84.1833 360° North 282 325 9,900  Level Atlanta TRACON
03:25PM 34.1775 -84.2667 North  Level FlightAware Approximate
03:25PM 33.9192 -84.2517 331° Northwest 343 395 12,100  Level Atlanta Center
03:26PM 34.0089 -84.2794 346° North 325 374 14,300 2,100 Climbing Atlanta Center
03:27PM 34.0903 -84.2797 360° North 320 368 16,300 1,800 Climbing Atlanta Center
03:28PM 34.2053 -84.2825 359° North 346 398 17,900 1,680 Climbing Atlanta Center
03:29PM 34.3094 -84.2803 North 360 414 19,700 1,740 Climbing Atlanta Center
03:30PM 34.4139 -84.2553 11° North 370 426 21,400 1,620 Climbing Atlanta Center
03:31PM 34.5183 -84.2303 11° North 375 432 23,000 1,440 Climbing Atlanta Center
03:32PM 34.6289 -84.2053 11° North 387 445 24,300 1,200 Climbing Atlanta Center
03:33PM 34.7250 -84.1828 11° North 392 451 25,500 1,140 Climbing Atlanta Center
03:34PM 34.8378 -84.1553 11° North 398 458 26,600 900 Climbing Atlanta Center
03:35PM 34.9525 -84.1275 11° North 404 465 27,300 840 Climbing Atlanta Center
03:36PM 35.0694 -84.0997 11° North 411 473 28,300 900 Climbing Atlanta Center
03:37PM 35.1861 -84.0692 12° North 421 484 29,200 960 Climbing Atlanta Center
03:38PM 35.3053 -84.0414 11° North 426 490 30,300 960 Climbing Atlanta Center
03:39PM 35.4242 -84.0108 12° North 426 490 31,200 720 Climbing Atlanta Center
03:40PM 35.5367 -83.9597 20° North 431 496 31,800 600 Climbing Atlanta Center
03:41PM 35.6536 -83.9058 21° North 436 502 32,400 600 Climbing Atlanta Center
03:42PM 35.7681 -83.8544 20° North 441 507 33,000 300 Climbing Atlanta Center
03:43PM 35.8850 -83.8003 21° North 441 507 33,000  Level Atlanta Center
03:44PM 36.0017 -83.7436 21° North 441 507 33,000  Level Atlanta Center
03:45PM 36.1161 -83.6867 22° Northeast 441 507 33,000  Level Atlanta Center
03:46PM 36.1600 -83.6642 22° Northeast 448 516 33,000  Level Indianapolis Center
03:47PM 36.2983 -83.5942 22° Northeast 450 518 33,000  Level Indianapolis Center
03:48PM 36.4147 -83.5364 22° Northeast 450 518 33,000  Level Indianapolis Center
03:49PM 36.5389 -83.4753 22° Northeast 451 519 33,000  Level Indianapolis Center
03:50PM 36.6539 -83.4086 25° Northeast 453 521 33,000  Level Indianapolis Center
03:51PM 36.7553 -83.3122 37° Northeast 456 525 33,000  Level Indianapolis Center
03:52PM 36.8561 -83.2186 37° Northeast 450 518 33,000  Level Indianapolis Center
03:53PM 36.9583 -83.1239 37° Northeast 451 519 33,000  Level Indianapolis Center
03:54PM 37.0606 -83.0267 37° Northeast 452 520 33,000  Level Indianapolis Center
03:55PM 37.1631 -82.9294 37° Northeast 453 521 33,000  Level Indianapolis Center
03:56PM 37.2633 -82.8325 38° Northeast 453 521 33,000  Level Indianapolis Center
03:57PM 37.3811 -82.7208 37° Northeast 453 521 33,000  Level Indianapolis Center
03:58PM 37.4811 -82.6233 38° Northeast 452 520 33,000  Level Indianapolis Center
03:59PM 37.5819 -82.5272 37° Northeast 452 520 33,000  Level Indianapolis Center
04:00PM 37.6806 -82.4286 38° Northeast 452 520 33,000  Level Indianapolis Center
04:01PM 37.7794 -82.3314 38° Northeast 450 518 33,000  Level Indianapolis Center
04:02PM 37.8972 -82.2181 37° Northeast 453 521 33,000  Level Indianapolis Center
04:03PM 37.9853 -82.1303 38° Northeast 449 517 33,000  Level Indianapolis Center
04:04PM 38.0836 -82.0347 37° Northeast 445 512 33,000  Level Indianapolis Center
04:05PM 38.1806 -81.9375 38° Northeast 444 511 33,000  Level Indianapolis Center
04:06PM 38.2975 -81.8211 38° Northeast 444 511 33,000  Level Indianapolis Center
04:07PM 38.3894 -81.7147 42° Northeast 443 510 33,000  Level Indianapolis Center
04:08PM 38.4728 -81.5975 48° Northeast 448 516 33,000  Level Indianapolis Center
04:09PM 38.5536 -81.4794 49° Northeast 448 516 33,000  Level Indianapolis Center
04:10PM 38.6514 -81.3397 48° Northeast 448 516 33,000  Level Indianapolis Center
04:12PM 38.7322 -81.2231 48° Northeast 443 510 33,000  Level Indianapolis Center
04:13PM 38.8139 -81.1042 49° Northeast 448 516 33,000  Level Indianapolis Center
04:14PM 38.8967 -80.9842 48° Northeast 449 517 33,000  Level Indianapolis Center
04:15PM 38.9939 -80.8892 37° Northeast 446 513 33,000  Level Indianapolis Center
04:16PM 39.1153 -80.8575 11° North 450 518 33,000  Level Indianapolis Center
04:17PM 39.3581 -80.8756 357° North 426 490 33,000  Level Cleveland Center
04:18PM 39.3853 -80.8783 355° North 446 513 33,000  Level Indianapolis Center
04:19PM 39.5089 -80.8903 356° North 446 513 33,000  Level Indianapolis Center
04:20PM 39.6322 -80.8969 358° North 444 511 33,000  Level Indianapolis Center
04:21PM 39.7558 -80.9033 358° North 443 510 33,000  Level Indianapolis Center
04:22PM 39.8553 -80.8131 35° Northeast 460 529 33,000  Level Indianapolis Center
04:22PM 39.9025 -80.7022 61° Northeast 402 463 33,000  Level Cleveland Center
04:23PM 39.9608 -80.5558 62° Northeast 435 501 33,000  Level Cleveland Center
04:24PM 40.0169 -80.4094 63° Northeast 441 507 33,000  Level Cleveland Center
04:25PM 40.0750 -80.2631 63° Northeast 441 507 33,000  Level Cleveland Center
04:26PM 40.1289 -80.1161 64° Northeast 441 507 33,000  Level Cleveland Center
04:27PM 40.1886 -79.9689 62° Northeast 446 513 33,000  Level Cleveland Center
04:28PM 40.2378 -79.8353 64° Northeast 452 520 33,000  Level Cleveland Center
04:29PM 40.2931 -79.6850 64° Northeast 447 514 33,000  Level Cleveland Center
04:30PM 40.3481 -79.5397 64° Northeast 447 514 33,000  Level Cleveland Center
04:31PM 40.4028 -79.3917 64° Northeast 447 514 33,000  Level Cleveland Center
04:32PM 40.4722 -79.2567 56° Northeast 447 514 33,000  Level Cleveland Center
04:33PM 40.5497 -79.1267 52° Northeast 447 514 33,000  Level Cleveland Center
04:34PM 40.6294 -78.9908 52° Northeast 453 521 33,000  Level Cleveland Center
04:35PM 40.7047 -78.8631 52° Northeast 453 521 33,000  Level Cleveland Center
04:36PM 40.7817 -78.7294 53° Northeast 453 521 33,000  Level Cleveland Center
04:37PM 40.8522 -78.5875 57° Northeast 447 514 33,000  Level Cleveland Center
04:38PM 40.8744 -78.4247 80° East 437 503 33,000  Level Cleveland Center
04:41PM 40.9089 -78.0450 83° East 457 526 33,000  Level New York Center
04:42PM 40.9736 -77.9033 59° Northeast 446 513 33,000  Level New York Center
04:43PM 41.0581 -77.7828 47° Northeast 441 507 33,000  Level New York Center
04:44PM 41.1444 -77.6594 47° Northeast 441 507 33,000  Level New York Center
04:45PM 41.2286 -77.5383 47° Northeast 446 513 33,000 -480 Level New York Center
04:46PM 41.3144 -77.4200 46° Northeast 451 519 32,100 -1,440 Descending New York Center
04:47PM 41.3983 -77.2953 48° Northeast 451 519 30,200 -1,500 Descending New York Center
04:48PM 41.4842 -77.1736 47° Northeast 451 519 29,100 -660 Descending New York Center
04:49PM 41.5772 -77.0325 49° Northeast 445 512 29,000 -60 Descending New York Center
04:50PM 41.6625 -76.9128 46° Northeast 445 512 29,000  Level New York Center
04:51PM 41.7442 -76.7842 50° Northeast 445 512 29,000 -600 Level New York Center
04:53PM 41.9206 -76.5169 48° Northeast 453 521 27,100 -1,200 Descending Boston Center
04:54PM 41.9958 -76.3933 51° Northeast 432 497 25,300 -1,560 Descending Boston Center
04:55PM 42.0706 -76.2778 49° Northeast 412 474 24,000 -660 Descending Boston Center
04:56PM 42.1456 -76.1619 49° Northeast 412 474 24,000  Level Boston Center
04:57PM 42.1978 -76.0275 62° Northeast 406 467 24,000  Level Boston Center
04:58PM 42.2606 -75.8825 60° Northeast 406 467 24,000  Level Boston Center
04:59PM 42.2958 -75.7525 70° East 412 474 24,000 -240 Level Boston Center
05:00PM 42.3231 -75.6022 76° East 406 467 23,600 -1,020 Descending Boston Center
05:01PM 42.3397 -75.4514 81° East 401 461 22,000 -1,380 Descending Boston Center
05:02PM 42.3539 -75.3058 82° East 401 461 20,900 -1,380 Descending Boston Center
05:03PM 42.3675 -75.1689 82° East 379 436 19,300 -1,620 Descending Boston Center
05:04PM 42.3858 -75.0122 81° East 360 414 17,400 -1,620 Descending Boston Center
05:05PM 42.3969 -74.8861 83° East 347 399 15,800 -1,560 Descending Boston Center
05:06PM 42.4081 -74.7600 83° East 339 390 14,300 -1,680 Descending Boston Center
05:07PM 42.4231 -74.6311 81° East 325 374 12,500 -1,860 Descending Boston Center
05:08PM 42.4281 -74.5808 82° East 318 366 11,700 -1,680 Descending Boston Center
05:08PM 42.4308 -74.5442 84° East 317 365 11,300 -1,380 Descending Boston Center
05:08PM 42.4336 -74.5133 83° East 316 364 10,900 -300 Descending Boston Center
05:09PM 42.4619 -74.4411 62° Northeast 306 352 11,000 60 Climbing Boston Center
05:09PM 42.4708 -74.4106 68° East 296 341 11,000 -840 Level Boston Center
05:10PM 42.4950 -74.3322 67° East 306 352 10,200 -1,380 Descending Boston Center
05:10PM 42.4978 -74.3014 83° East 296 341 9,600 -2,100 Descending Boston Center
05:11PM 42.5114 -74.2231 77° East 291 335 8,100 -2,100 Descending Boston Center
05:11PM 42.5139 -74.1978 82° East 291 335 7,500 -2,400 Descending Boston Center
05:12PM 42.5236 -74.1164 81° East 291 335 5,700 -1,980 Descending Boston Center
05:13PM 42.5417 -74.0208 76° East 285 328 4,200 -1,440 Descending Boston Center
05:13PM 42.5483 -73.9844 76° East 291 335 3,900 -1,200 Descending Boston Center
05:14PM 42.5658 -73.9286 67° East 264 304 3,000 -1,380 Descending Boston Center